Time;durP1;ratioP1;P1;durP2;ratioP2;P2;SDS_P1;SDS_P2;PMS_P1;PMS_P2;Temp;Humidity;BMP_temperature;BMP_pressure;BME280_temperature;BME280_humidity;BME280_pressure;Samples;Min_cycle;Max_cycle;Signal;HPM_P1;HPM_P2
2021/10/22 00:01:10;;;;;;;0.20;0.20;;;8.70;99.90;;;;;;5010503;28;20026;-75
2021/10/22 00:03:36;;;;;;;0.20;0.20;;;8.70;99.90;;;;;;5010569;28;20022;-76
2021/10/22 00:06:02;;;;;;;0.10;0.10;;;8.70;99.90;;;;;;4995182;28;20027;-75
2021/10/22 00:08:27;;;;;;;0.20;0.20;;;8.70;99.90;;;;;;4995719;28;20026;-76
2021/10/22 00:10:53;;;;;;;0.20;0.20;;;8.70;99.90;;;;;;5010302;28;20214;-76
2021/10/22 00:13:19;;;;;;;0.20;0.20;;;8.70;99.90;;;;;;4995828;28;20455;-79
2021/10/22 00:15:45;;;;;;;0.20;0.20;;;8.80;99.90;;;;;;4995752;28;20053;-76
2021/10/22 00:18:11;;;;;;;0.20;0.20;;;8.80;99.90;;;;;;4994813;28;20039;-76
2021/10/22 00:20:37;;;;;;;0.17;0.17;;;8.80;99.90;;;;;;5010679;28;20029;-76
2021/10/22 00:23:03;;;;;;;0.20;0.20;;;8.80;99.90;;;;;;4994929;28;20034;-76
2021/10/22 00:25:29;;;;;;;0.20;0.20;;;8.80;99.90;;;;;;4995441;28;20109;-75
2021/10/22 00:27:55;;;;;;;0.20;0.20;;;8.70;99.90;;;;;;4994620;28;20038;-76
2021/10/22 00:30:21;;;;;;;0.20;0.20;;;8.70;99.90;;;;;;5010495;28;20375;-76
2021/10/22 00:32:46;;;;;;;0.20;0.20;;;8.70;99.90;;;;;;4994281;28;20410;-76
2021/10/22 00:35:12;;;;;;;0.20;0.20;;;8.80;99.90;;;;;;4994738;28;20163;-76
2021/10/22 00:37:38;;;;;;;0.20;0.20;;;8.80;99.90;;;;;;5008792;28;20046;-76
2021/10/22 00:40:04;;;;;;;0.20;0.20;;;8.80;99.90;;;;;;4992349;28;20533;-76
2021/10/22 00:42:33;;;;;;;0.20;0.20;;;8.80;99.90;;;;;;4993824;28;20053;-76
2021/10/22 00:44:59;;;;;;;0.20;0.20;;;8.80;99.90;;;;;;5008602;28;20033;-76
2021/10/22 00:47:24;;;;;;;0.20;0.20;;;8.80;99.90;;;;;;4993421;28;20026;-76
2021/10/22 00:49:50;;;;;;;0.28;0.28;;;8.70;99.90;;;;;;5009070;28;20084;-76
2021/10/22 00:52:20;;;;;;;0.20;0.20;;;8.70;99.90;;;;;;5008243;28;20122;-76
2021/10/22 00:54:46;;;;;;;0.20;0.20;;;8.70;99.90;;;;;;4994025;28;20037;-76
2021/10/22 00:57:13;;;;;;;0.22;0.22;;;8.60;99.90;;;;;;5008312;28;20018;-76
2021/10/22 00:59:39;;;;;;;0.20;0.20;;;8.60;99.90;;;;;;4992484;28;20026;-76
2021/10/22 01:02:05;;;;;;;0.32;0.25;;;8.60;99.90;;;;;;4991935;28;20447;-76
2021/10/22 01:04:31;;;;;;;0.20;0.20;;;8.60;99.90;;;;;;5008895;28;20375;-76
2021/10/22 01:06:57;;;;;;;0.20;0.20;;;8.50;99.90;;;;;;4992827;28;20029;-76
2021/10/22 01:09:25;;;;;;;0.20;0.20;;;8.50;99.90;;;;;;4993793;28;20073;-76
2021/10/22 01:11:50;;;;;;;0.20;0.20;;;8.50;99.90;;;;;;4992436;28;20035;-77
2021/10/22 01:14:17;;;;;;;0.20;0.20;;;8.50;99.90;;;;;;4991692;28;20470;-76
2021/10/22 01:16:43;;;;;;;0.20;0.20;;;8.50;99.90;;;;;;4993505;28;20058;-76
2021/10/22 01:19:16;;;;;;;0.20;0.20;;;8.40;99.90;;;;;;5007966;28;20484;-76
2021/10/22 01:21:49;;;;;;;0.20;0.20;;;8.40;99.90;;;;;;5008587;28;20026;-76
2021/10/22 01:24:17;;;;;;;0.43;0.20;;;8.40;99.90;;;;;;4992849;28;20064;-76
2021/10/22 01:26:43;;;;;;;0.20;0.20;;;8.40;99.90;;;;;;5008562;28;20347;-76
2021/10/22 01:29:09;;;;;;;0.20;0.20;;;8.40;99.90;;;;;;4992824;28;20113;-76
2021/10/22 01:31:36;;;;;;;0.20;0.20;;;8.40;99.90;;;;;;5008383;28;20121;-76
2021/10/22 01:34:03;;;;;;;0.20;0.20;;;8.30;99.90;;;;;;4992785;28;20023;-77
2021/10/22 01:36:29;;;;;;;0.20;0.20;;;8.40;99.90;;;;;;4949916;28;1261723;-76
2021/10/22 01:38:56;;;;;;;0.20;0.20;;;8.40;99.90;;;;;;5009156;28;20141;-76
2021/10/22 01:41:22;;;;;;;0.28;0.28;;;8.30;99.90;;;;;;5008706;28;20038;-76
2021/10/22 01:43:53;;;;;;;0.20;0.20;;;8.30;99.90;;;;;;4992971;28;20494;-76
2021/10/22 01:46:19;;;;;;;0.20;0.20;;;8.30;99.90;;;;;;4992036;28;20031;-76
2021/10/22 01:48:46;;;;;;;0.20;0.20;;;8.30;99.90;;;;;;4994075;28;20513;-77
2021/10/22 01:51:12;;;;;;;0.20;0.20;;;8.30;99.90;;;;;;4993466;28;20023;-75
2021/10/22 01:53:38;;;;;;;0.20;0.20;;;8.30;99.90;;;;;;4994108;28;20375;-76
2021/10/22 01:56:04;;;;;;;0.20;0.20;;;8.20;99.90;;;;;;4993622;28;20027;-76
2021/10/22 01:58:30;;;;;;;0.30;0.20;;;8.20;99.90;;;;;;5008173;28;20118;-76
2021/10/22 02:00:55;;;;;;;0.30;0.30;;;8.20;99.90;;;;;;4992443;28;20027;-76
2021/10/22 02:03:21;;;;;;;0.20;0.20;;;8.20;99.90;;;;;;4993099;28;20029;-76
2021/10/22 02:05:47;;;;;;;0.20;0.20;;;8.20;99.90;;;;;;4993738;28;20422;-76
2021/10/22 02:08:12;;;;;;;0.20;0.20;;;8.20;99.90;;;;;;4993140;28;20081;-76
2021/10/22 02:10:38;;;;;;;0.20;0.20;;;8.20;99.90;;;;;;4993363;28;20026;-76
2021/10/22 02:13:04;;;;;;;0.20;0.20;;;8.20;99.90;;;;;;4991888;28;20023;-76
2021/10/22 02:15:29;;;;;;;0.20;0.20;;;8.20;99.90;;;;;;5008377;28;20030;-76
2021/10/22 02:17:55;;;;;;;0.22;0.22;;;8.10;99.90;;;;;;4992084;28;20080;-76
2021/10/22 02:20:21;;;;;;;0.20;0.20;;;8.10;99.90;;;;;;4992814;28;20106;-76
2021/10/22 02:22:47;;;;;;;0.20;0.20;;;8.10;99.90;;;;;;4992330;28;20422;-76
2021/10/22 02:25:13;;;;;;;0.30;0.30;;;8.10;99.90;;;;;;4992877;28;20463;-76
2021/10/22 02:27:39;;;;;;;0.20;0.20;;;8.10;99.90;;;;;;5008492;28;20487;-76
2021/10/22 02:30:06;;;;;;;0.20;0.20;;;8.10;99.90;;;;;;4992467;28;20131;-76
2021/10/22 02:32:32;;;;;;;0.20;0.20;;;8.00;99.90;;;;;;5008378;28;20390;-76
2021/10/22 02:34:57;;;;;;;0.47;0.30;;;8.00;99.90;;;;;;4993256;28;20483;-76
2021/10/22 02:37:23;;;;;;;0.25;0.25;;;8.00;99.90;;;;;;5007518;28;20542;-78
2021/10/22 02:39:49;;;;;;;0.43;0.35;;;8.00;99.90;;;;;;4992749;28;20034;-75
2021/10/22 02:42:14;;;;;;;1.02;0.40;;;8.00;99.90;;;;;;5007583;28;20034;-76
2021/10/22 02:44:40;;;;;;;0.40;0.40;;;8.00;99.90;;;;;;4992832;28;20471;-75
2021/10/22 02:47:06;;;;;;;0.82;0.55;;;8.00;99.90;;;;;;5007522;28;20026;-75
2021/10/22 02:49:32;;;;;;;1.35;0.70;;;8.00;99.90;;;;;;4993019;28;20022;-75
2021/10/22 02:51:58;;;;;;;1.73;0.70;;;8.00;99.90;;;;;;5008036;28;20117;-75
2021/10/22 02:54:23;;;;;;;1.85;0.80;;;8.00;99.90;;;;;;4990700;28;20022;-75
2021/10/22 02:56:49;;;;;;;4.63;1.10;;;8.00;99.90;;;;;;4992645;28;20022;-76
2021/10/22 02:59:15;;;;;;;5.38;1.20;;;7.90;99.90;;;;;;4992315;28;20034;-78
2021/10/22 03:01:42;;;;;;;4.80;1.23;;;7.90;99.90;;;;;;4992854;28;20038;-76
2021/10/22 03:04:08;;;;;;;8.70;1.40;;;7.90;99.90;;;;;;4992347;28;20076;-76
2021/10/22 03:06:34;;;;;;;7.28;1.52;;;7.90;99.90;;;;;;4991516;28;20459;-76
2021/10/22 03:08:59;;;;;;;5.35;1.20;;;7.90;99.90;;;;;;4992890;28;20031;-77
2021/10/22 03:11:26;;;;;;;3.20;1.20;;;7.90;99.90;;;;;;4992057;28;20018;-76
2021/10/22 03:13:52;;;;;;;4.80;1.27;;;7.90;99.90;;;;;;4992798;28;20073;-76
2021/10/22 03:16:18;;;;;;;3.38;1.45;;;7.90;99.90;;;;;;4992057;28;20068;-76
2021/10/22 03:18:44;;;;;;;10.23;1.63;;;7.90;99.90;;;;;;5007651;28;20025;-76
2021/10/22 03:21:10;;;;;;;5.28;1.30;;;7.90;99.90;;;;;;5007027;28;20511;-76
2021/10/22 03:23:35;;;;;;;7.30;1.83;;;7.90;99.90;;;;;;4991563;28;20019;-76
2021/10/22 03:26:01;;;;;;;8.80;2.20;;;7.90;99.90;;;;;;4992355;28;20027;-76
2021/10/22 03:28:27;;;;;;;8.48;1.90;;;7.90;99.90;;;;;;4992246;28;20041;-76
2021/10/22 03:30:52;;;;;;;6.85;2.20;;;7.80;99.90;;;;;;4991149;28;20025;-76
2021/10/22 03:33:18;;;;;;;8.50;1.52;;;7.80;99.90;;;;;;4990637;28;20034;-76
2021/10/22 03:35:44;;;;;;;3.42;1.95;;;7.80;99.90;;;;;;5000841;28;20429;-76
2021/10/22 03:38:09;;;;;;;3.03;1.50;;;7.80;99.90;;;;;;5026391;28;20032;-76
2021/10/22 03:40:35;;;;;;;5.00;2.10;;;7.80;99.90;;;;;;5011970;28;20388;-76
2021/10/22 03:43:02;;;;;;;5.85;2.00;;;7.80;99.90;;;;;;4999659;28;20106;-77
2021/10/22 03:45:28;;;;;;;7.43;2.33;;;7.80;99.90;;;;;;5019707;28;20029;-75
2021/10/22 03:47:55;;;;;;;6.35;2.13;;;7.80;99.90;;;;;;4998414;28;20030;-77
2021/10/22 03:50:22;;;;;;;7.28;2.10;;;7.70;99.90;;;;;;5009453;28;20060;-77
2021/10/22 03:52:48;;;;;;;8.95;2.58;;;7.70;99.90;;;;;;4991840;28;20027;-76
2021/10/22 03:55:16;;;;;;;7.95;2.50;;;7.70;99.90;;;;;;4994868;28;20026;-76
2021/10/22 03:57:41;;;;;;;13.70;2.85;;;7.70;99.90;;;;;;4998503;28;20030;-76
2021/10/22 04:00:09;;;;;;;7.30;2.55;;;7.70;99.90;;;;;;5011071;28;20086;-79
2021/10/22 04:02:34;;;;;;;7.35;2.40;;;7.70;99.90;;;;;;4997612;28;20162;-76
2021/10/22 04:05:03;;;;;;;4.38;1.80;;;7.70;99.90;;;;;;5011062;28;20054;-76
2021/10/22 04:07:29;;;;;;;10.70;1.83;;;7.70;99.90;;;;;;5025624;28;20538;-76
2021/10/22 04:09:54;;;;;;;14.00;2.80;;;7.70;99.90;;;;;;5015581;28;20030;-76
2021/10/22 04:12:20;;;;;;;10.18;3.05;;;7.70;99.90;;;;;;4994501;28;20046;-79
2021/10/22 04:14:46;;;;;;;7.90;2.97;;;7.70;99.90;;;;;;5008955;28;20478;-78
2021/10/22 04:17:11;;;;;;;10.13;3.03;;;7.70;99.90;;;;;;5009087;28;20458;-79
2021/10/22 04:19:37;;;;;;;8.82;2.83;;;7.80;99.90;;;;;;5009363;28;20026;-77
2021/10/22 04:22:03;;;;;;;9.95;2.67;;;7.80;99.90;;;;;;5008954;28;20026;-78
2021/10/22 04:24:29;;;;;;;8.95;3.05;;;7.90;99.90;;;;;;4993076;28;20378;-78
2021/10/22 04:26:55;;;;;;;5.53;2.58;;;7.90;99.90;;;;;;4993104;28;20113;-78
2021/10/22 04:29:21;;;;;;;13.32;3.72;;;7.80;99.90;;;;;;4992884;28;20106;-76
2021/10/22 04:31:46;;;;;;;10.48;3.30;;;7.90;99.90;;;;;;4993410;28;20122;-77
2021/10/22 04:34:12;;;;;;;10.43;3.55;;;7.90;99.90;;;;;;4992584;28;20377;-78
2021/10/22 04:36:39;;;;;;;8.18;3.35;;;7.90;99.90;;;;;;5012430;28;20058;-78
2021/10/22 04:41:50;;;;;;;14.82;3.38;;;8.00;99.90;;;;;;5012897;28;20033;-79
2021/10/22 04:44:16;;;;;;;8.15;3.20;;;8.00;99.90;;;;;;5010741;28;20018;-78
2021/10/22 04:46:42;;;;;;;6.63;3.03;;;8.00;99.90;;;;;;4999534;28;20030;-78
2021/10/22 04:49:09;;;;;;;9.75;2.80;;;8.00;99.90;;;;;;4995791;28;20041;-79
2021/10/22 04:51:34;;;;;;;10.25;3.00;;;8.10;99.90;;;;;;5016061;28;20041;-80
2021/10/22 04:54:00;;;;;;;13.43;3.10;;;8.10;99.90;;;;;;5003473;28;20026;-78
2021/10/22 04:56:25;;;;;;;9.23;3.60;;;8.10;99.90;;;;;;4992030;28;20022;-78
2021/10/22 04:58:51;;;;;;;11.32;3.28;;;8.10;99.90;;;;;;4993399;28;20030;-77
2021/10/22 05:01:17;;;;;;;9.43;3.28;;;8.10;99.90;;;;;;4993517;28;20034;-76
2021/10/22 05:03:42;;;;;;;7.38;2.88;;;8.10;99.90;;;;;;4994509;28;20027;-76
2021/10/22 05:06:08;;;;;;;19.00;3.95;;;8.00;99.90;;;;;;4993615;28;20015;-76
2021/10/22 05:08:34;;;;;;;10.10;3.40;;;8.10;99.90;;;;;;5009274;28;20027;-76
2021/10/22 05:11:00;;;;;;;11.77;3.05;;;8.10;99.90;;;;;;4994826;28;20105;-77
2021/10/22 05:13:26;;;;;;;16.75;3.22;;;8.10;99.90;;;;;;4993914;28;20080;-76
2021/10/22 05:15:52;;;;;;;9.27;3.47;;;8.10;99.90;;;;;;5009738;28;20204;-76
2021/10/22 05:18:18;;;;;;;12.63;3.00;;;8.20;99.90;;;;;;4994003;28;20427;-76
2021/10/22 05:20:44;;;;;;;14.02;3.88;;;8.20;99.90;;;;;;4993513;28;20387;-76
2021/10/22 05:23:10;;;;;;;8.70;3.17;;;8.20;99.90;;;;;;4994492;28;20459;-76
2021/10/22 05:25:36;;;;;;;12.77;3.22;;;8.20;99.90;;;;;;4992667;28;20393;-76
2021/10/22 05:28:02;;;;;;;7.88;2.30;;;8.10;99.90;;;;;;4994271;28;20478;-76
2021/10/22 05:30:27;;;;;;;10.98;2.78;;;8.10;99.90;;;;;;4993843;28;20025;-75
2021/10/22 05:32:53;;;;;;;6.85;3.83;;;8.00;99.90;;;;;;4992232;28;20023;-75
2021/10/22 05:35:19;;;;;;;7.30;3.13;;;8.00;99.90;;;;;;4993184;28;20023;-75
2021/10/22 05:37:44;;;;;;;11.68;2.90;;;7.90;99.90;;;;;;4992738;28;20101;-75
2021/10/22 05:40:10;;;;;;;4.85;2.22;;;7.80;99.90;;;;;;4994037;28;20391;-75
2021/10/22 05:42:36;;;;;;;11.25;3.22;;;7.80;99.90;;;;;;5008660;28;20105;-75
2021/10/22 05:45:03;;;;;;;6.35;2.50;;;7.70;99.90;;;;;;4993885;28;20467;-75
2021/10/22 05:47:29;;;;;;;11.68;2.92;;;7.60;99.90;;;;;;5008591;28;20467;-76
2021/10/22 05:49:55;;;;;;;9.98;2.70;;;7.60;99.90;;;;;;4994045;28;20113;-76
2021/10/22 05:52:21;;;;;;;16.40;2.88;;;7.60;99.90;;;;;;4993558;28;20022;-76
2021/10/22 05:54:47;;;;;;;9.68;2.97;;;7.60;99.90;;;;;;4993614;28;20026;-77
2021/10/22 05:57:12;;;;;;;6.82;2.47;;;7.50;99.90;;;;;;5009019;28;20026;-77
2021/10/22 05:59:38;;;;;;;11.60;3.35;;;7.50;99.90;;;;;;5008304;28;20430;-77
2021/10/22 06:02:04;;;;;;;7.00;2.72;;;7.50;99.90;;;;;;4993699;28;20034;-77
2021/10/22 06:04:29;;;;;;;8.27;2.70;;;7.60;99.90;;;;;;4991913;28;20081;-75
2021/10/22 06:06:55;;;;;;;5.32;2.22;;;7.60;99.90;;;;;;4993535;28;20026;-76
2021/10/22 06:09:21;;;;;;;10.00;3.20;;;7.60;99.90;;;;;;4993223;28;20467;-76
2021/10/22 06:11:49;;;;;;;7.28;2.80;;;7.70;99.90;;;;;;4993519;28;20057;-76
2021/10/22 06:14:15;;;;;;;8.73;3.05;;;7.80;99.90;;;;;;4992443;28;20118;-76
2021/10/22 06:16:41;;;;;;;7.35;2.90;;;7.80;99.90;;;;;;4993036;28;20077;-76
2021/10/22 06:19:11;;;;;;;9.55;2.97;;;7.90;99.90;;;;;;5008502;28;20034;-76
2021/10/22 06:24:08;;;;;;;8.82;3.13;;;8.00;99.90;;;;;;4993486;28;20027;-77
2021/10/22 06:26:39;;;;;;;13.70;3.17;;;8.10;99.90;;;;;;4992865;28;20037;-75
2021/10/22 06:29:06;;;;;;;14.15;3.63;;;8.10;99.90;;;;;;5008533;28;20030;-78
2021/10/22 06:31:32;;;;;;;14.48;3.25;;;8.10;99.90;;;;;;5008030;28;20050;-76
2021/10/22 06:33:58;;;;;;;10.30;2.83;;;8.10;99.90;;;;;;4993324;28;20439;-78
2021/10/22 06:36:24;;;;;;;7.85;2.70;;;8.10;99.90;;;;;;4992367;28;20046;-76
2021/10/22 06:38:51;;;;;;;11.18;3.20;;;8.10;99.90;;;;;;5008138;28;20026;-77
2021/10/22 06:41:17;;;;;;;9.63;2.80;;;8.10;99.90;;;;;;4992941;28;20462;-76
2021/10/22 06:43:43;;;;;;;10.07;3.10;;;8.10;99.90;;;;;;4992518;28;20022;-76
2021/10/22 06:46:09;;;;;;;14.82;3.20;;;8.10;99.90;;;;;;4992832;28;20113;-77
2021/10/22 06:48:36;;;;;;;9.82;2.92;;;8.00;99.90;;;;;;4991103;28;20139;-77
2021/10/22 06:51:02;;;;;;;6.20;2.80;;;8.00;99.90;;;;;;4993048;28;20050;-77
2021/10/22 06:53:28;;;;;;;6.43;2.63;;;8.00;99.90;;;;;;4992412;28;20080;-77
2021/10/22 06:55:54;;;;;;;11.80;2.97;;;8.10;99.90;;;;;;4993176;28;20026;-77
2021/10/22 06:58:20;;;;;;;9.65;3.58;;;8.10;99.90;;;;;;5007823;28;20038;-76
2021/10/22 07:00:49;;;;;;;8.95;2.92;;;8.10;99.90;;;;;;4991239;28;20026;-76
2021/10/22 07:03:20;;;;;;;8.73;3.05;;;8.10;99.90;;;;;;4991560;28;20474;-77
2021/10/22 07:06:01;;;;;;;14.90;3.13;;;8.20;99.90;;;;;;5007892;28;20097;-76
2021/10/22 07:08:27;;;;;;;7.45;2.28;;;8.20;99.90;;;;;;4992171;28;20109;-76
2021/10/22 07:10:52;;;;;;;9.70;2.90;;;8.20;99.90;;;;;;5007811;28;20109;-76
2021/10/22 07:13:20;;;;;;;13.43;3.50;;;8.30;99.90;;;;;;4992331;28;20022;-76
2021/10/22 07:15:46;;;;;;;10.05;3.15;;;8.40;99.90;;;;;;5007386;28;20410;-77
2021/10/22 07:18:12;;;;;;;10.40;3.63;;;8.40;99.90;;;;;;4992366;28;20026;-76
2021/10/22 07:20:38;;;;;;;10.27;3.45;;;8.40;99.90;;;;;;4992005;28;20054;-76
2021/10/22 07:25:32;;;;;;;8.90;2.90;;;8.40;99.90;;;;;;4991951;28;20031;-77
2021/10/22 07:28:06;;;;;;;9.60;3.22;;;8.40;99.90;;;;;;4991147;28;20447;-77
2021/10/22 07:30:32;;;;;;;9.40;3.97;;;8.30;99.90;;;;;;4991980;28;20021;-77
2021/10/22 07:32:58;;;;;;;13.80;3.70;;;8.30;99.90;;;;;;4991138;28;20080;-77
2021/10/22 07:35:24;;;;;;;10.02;3.40;;;8.30;99.90;;;;;;4992127;28;20054;-76
2021/10/22 07:37:50;;;;;;;9.23;3.60;;;8.40;99.90;;;;;;4990847;28;20520;-75
2021/10/22 07:40:15;;;;;;;12.10;3.28;;;8.40;99.90;;;;;;4992411;28;20022;-77
2021/10/22 07:42:41;;;;;;;12.15;3.65;;;8.50;99.90;;;;;;4990613;28;20027;-77
2021/10/22 07:45:07;;;;;;;10.77;3.85;;;8.50;99.90;;;;;;4992361;28;20026;-78
2021/10/22 07:47:37;;;;;;;9.18;3.65;;;8.60;99.90;;;;;;5006926;28;20023;-76
2021/10/22 07:50:07;;;;;;;10.82;3.15;;;8.70;99.90;;;;;;4992292;28;20027;-76
2021/10/22 07:52:34;;;;;;;12.02;3.63;;;8.70;99.90;;;;;;5006864;28;20450;-76
2021/10/22 07:55:01;;;;;;;10.70;3.63;;;8.70;99.90;;;;;;4992278;28;20030;-76
2021/10/22 07:57:28;;;;;;;10.20;2.95;;;8.80;99.90;;;;;;5008543;28;20018;-76
2021/10/22 07:59:54;;;;;;;10.35;3.75;;;8.80;99.90;;;;;;4995966;28;20027;-77
2021/10/22 08:02:21;;;;;;;11.80;3.42;;;8.90;99.90;;;;;;4996209;28;20046;-77
2021/10/22 08:04:50;;;;;;;9.05;2.95;;;8.90;99.90;;;;;;4995452;28;20026;-76
2021/10/22 08:07:17;;;;;;;10.25;3.15;;;9.00;99.90;;;;;;4995959;28;20034;-76
2021/10/22 08:09:45;;;;;;;7.60;2.63;;;9.00;99.90;;;;;;4995418;28;20371;-76
2021/10/22 08:12:12;;;;;;;6.05;2.38;;;9.10;99.90;;;;;;4995985;28;20101;-76
2021/10/22 08:14:39;;;;;;;11.45;3.47;;;9.20;99.90;;;;;;5010282;28;20030;-76
2021/10/22 08:17:04;;;;;;;7.38;3.20;;;9.20;99.90;;;;;;4995842;28;20073;-76
2021/10/22 08:19:30;;;;;;;9.45;3.17;;;9.20;99.90;;;;;;4995138;28;20030;-76
2021/10/22 08:24:40;;;;;;;12.13;3.17;;;9.20;99.90;;;;;;4995162;28;20033;-76
2021/10/22 08:27:06;;;;;;;7.95;3.28;;;9.30;99.90;;;;;;4995584;28;20046;-77
2021/10/22 08:29:33;;;;;;;9.27;3.10;;;9.30;99.90;;;;;;4994990;28;20054;-77
2021/10/22 08:31:59;;;;;;;13.05;4.10;;;9.30;99.90;;;;;;4994311;28;20029;-77
2021/10/22 08:34:25;;;;;;;9.60;3.88;;;9.30;99.90;;;;;;4995572;28;20022;-76
2021/10/22 08:36:51;;;;;;;9.50;3.70;;;9.20;99.90;;;;;;4993423;28;20056;-76
2021/10/22 08:39:17;;;;;;;7.65;3.50;;;9.20;99.90;;;;;;4995428;28;20026;-77
2021/10/22 08:41:46;;;;;;;8.20;3.45;;;9.20;99.90;;;;;;5009934;28;20386;-76
2021/10/22 08:44:13;;;;;;;8.75;3.40;;;9.30;99.90;;;;;;4995095;28;20061;-76
2021/10/22 08:46:41;;;;;;;7.10;2.97;;;9.40;99.90;;;;;;4994688;28;20030;-77
2021/10/22 08:49:12;;;;;;;10.40;3.50;;;9.50;99.90;;;;;;4995291;28;20030;-78
2021/10/22 08:51:38;;;;;;;11.15;3.92;;;9.60;99.90;;;;;;4994727;28;20026;-78
2021/10/22 08:54:04;;;;;;;8.27;3.22;;;9.70;99.90;;;;;;4995345;28;20027;-78
2021/10/22 08:56:30;;;;;;;11.05;3.00;;;9.80;99.90;;;;;;4992941;28;20044;-76
2021/10/22 08:58:56;;;;;;;9.07;3.03;;;9.80;99.90;;;;;;5009968;28;20057;-77
2021/10/22 09:01:22;;;;;;;9.88;3.58;;;9.80;99.90;;;;;;4994999;28;20018;-77
2021/10/22 09:03:47;;;;;;;6.55;2.90;;;9.80;99.90;;;;;;4994348;28;20066;-77
2021/10/22 09:06:14;;;;;;;7.72;3.13;;;9.80;99.90;;;;;;4994903;28;20469;-77
2021/10/22 09:08:42;;;;;;;8.52;3.72;;;9.90;99.90;;;;;;4993664;28;20045;-77
2021/10/22 09:11:27;;;;;;;10.05;3.53;;;9.90;99.90;;;;;;5009717;28;20383;-77
2021/10/22 09:14:19;;;;;;;7.53;3.10;;;10.10;99.90;;;;;;4994150;28;20037;-77
2021/10/22 09:16:50;;;;;;;7.32;2.55;;;10.10;99.90;;;;;;5008019;28;20034;-77
2021/10/22 09:19:36;;;;;;;9.52;2.88;;;10.20;99.90;;;;;;4994532;28;20033;-76
2021/10/22 09:22:28;;;;;;;8.63;3.25;;;10.20;99.90;;;;;;4994720;28;20049;-77
2021/10/22 09:24:56;;;;;;;12.30;3.45;;;10.30;99.90;;;;;;4993928;28;20022;-77
2021/10/22 09:27:49;;;;;;;9.68;2.70;;;10.30;99.90;;;;;;4994576;28;20160;-77
2021/10/22 09:30:24;;;;;;;10.63;3.35;;;10.30;99.90;;;;;;4994534;28;20026;-77
2021/10/22 09:32:54;;;;;;;6.40;2.78;;;10.30;99.90;;;;;;4992530;28;20038;-77
2021/10/22 09:35:53;;;;;;;7.55;2.67;;;10.30;99.90;;;;;;4994798;28;20046;-77
2021/10/22 09:38:29;;;;;;;9.80;2.95;;;10.40;99.90;;;;;;4994344;28;20041;-77
2021/10/22 09:41:04;;;;;;;11.52;2.80;;;10.50;99.90;;;;;;4992387;28;20030;-77
2021/10/22 09:43:35;;;;;;;8.88;2.70;;;10.40;99.90;;;;;;5009368;28;20453;-77
2021/10/22 09:46:08;;;;;;;;;;;10.40;99.90;;;;;;4994636;28;20052;-76
2021/10/22 09:48:34;;;;;;;8.95;2.90;;;10.30;99.90;;;;;;4992631;28;19977;-77
2021/10/22 09:51:19;;;;;;;7.63;1.85;;;10.10;99.90;;;;;;4994046;28;20447;-77
2021/10/22 09:53:45;;;;;;;5.35;1.77;;;10.00;99.90;;;;;;4992146;28;20027;-77
2021/10/22 09:56:24;;;;;;;7.78;2.30;;;9.90;99.90;;;;;;4994033;28;20093;-78
2021/10/22 09:59:24;;;;;;;12.00;2.58;;;9.90;99.90;;;;;;4993219;28;20027;-77
2021/10/22 10:01:54;;;;;;;10.57;2.53;;;9.80;99.90;;;;;;5008298;28;20069;-76
2021/10/22 10:04:25;;;;;;;8.63;1.95;;;9.80;99.90;;;;;;4993929;28;20027;-76
2021/10/22 10:06:52;;;;;;;6.85;2.05;;;9.80;99.90;;;;;;4993029;28;20531;-77
2021/10/22 10:09:18;;;;;;;7.55;1.98;;;9.80;99.90;;;;;;5008826;28;20109;-77
2021/10/22 10:11:45;;;;;;;9.82;1.92;;;9.80;99.90;;;;;;4993051;28;20023;-77
2021/10/22 10:14:14;;;;;;;7.70;1.98;;;9.70;99.90;;;;;;4993667;28;20031;-77
2021/10/22 10:16:40;;;;;;;8.88;1.88;;;9.70;99.90;;;;;;4992964;28;20053;-77
2021/10/22 10:19:18;;;;;;;3.28;1.67;;;9.60;99.90;;;;;;4993154;28;20074;-77
2021/10/22 10:21:57;;;;;;;8.32;2.10;;;9.60;99.90;;;;;;4992761;28;20101;-77
2021/10/22 10:24:35;;;;;;;5.70;2.00;;;9.60;99.90;;;;;;4992160;28;20045;-76
2021/10/22 10:27:04;;;;;;;4.78;1.73;;;9.50;99.90;;;;;;4993706;28;20070;-76
2021/10/22 10:29:33;;;;;;;5.53;1.48;;;9.60;99.90;;;;;;4992122;28;20128;-76
2021/10/22 10:32:08;;;;;;;8.50;2.13;;;9.60;99.90;;;;;;4992927;28;20085;-76
2021/10/22 10:34:37;;;;;;;4.25;2.13;;;9.60;99.90;;;;;;4992139;28;20030;-75
2021/10/22 10:37:05;;;;;;;6.00;1.50;;;9.60;99.90;;;;;;5007984;28;20402;-76
2021/10/22 10:39:43;;;;;;;2.65;1.23;;;9.60;99.90;;;;;;5008226;28;20387;-76
2021/10/22 10:42:16;;;;;;;6.40;1.80;;;9.70;99.90;;;;;;4991965;28;20030;-76
2021/10/22 10:44:43;;;;;;;5.43;1.67;;;9.70;99.90;;;;;;4991195;28;20018;-76
2021/10/22 10:47:27;;;;;;;3.88;1.73;;;9.70;99.90;;;;;;5008188;28;20065;-76
2021/10/22 10:49:52;;;;;;;2.22;1.20;;;9.80;99.90;;;;;;4992466;28;20030;-76
2021/10/22 10:55:18;;;;;;;3.00;1.08;;;9.80;99.90;;;;;;4993009;28;20085;-75
2021/10/22 10:57:52;;;;;;;4.53;1.50;;;9.80;99.90;;;;;;4990988;28;20019;-75
2021/10/22 11:00:21;;;;;;;5.38;1.60;;;9.90;99.90;;;;;;4992830;28;20035;-77
2021/10/22 11:03:02;;;;;;;2.80;1.15;;;10.00;99.90;;;;;;4992211;28;20022;-75
2021/10/22 11:05:54;;;;;;;5.93;1.23;;;10.10;99.90;;;;;;4991716;28;20063;-75
2021/10/22 11:08:36;;;;;;;1.08;0.98;;;10.30;99.90;;;;;;4990956;28;20489;-75
2021/10/22 11:11:28;;;;;;;;;;;10.40;99.90;;;;;;5007617;28;20027;-75
2021/10/22 11:14:10;;;;;;;1.52;0.90;;;10.40;99.90;;;;;;5007090;28;19912;-76
2021/10/22 11:16:44;;;;;;;4.78;1.30;;;10.60;99.90;;;;;;5007780;28;20037;-75
2021/10/22 11:19:17;;;;;;;3.28;1.30;;;10.70;99.90;;;;;;5007903;28;20035;-75
2021/10/22 11:21:50;;;;;;;4.82;1.25;;;10.90;99.90;;;;;;4992008;28;20023;-75
2021/10/22 11:24:25;;;;;;;1.73;0.80;;;11.00;99.90;;;;;;4992603;28;20038;-76
2021/10/22 11:27:03;;;;;;;5.20;1.67;;;11.00;99.90;;;;;;4992219;28;20132;-76
2021/10/22 11:29:40;;;;;;;2.35;1.20;;;11.20;99.90;;;;;;4992315;28;20484;-75
2021/10/22 11:32:11;;;;;;;3.13;1.33;;;11.50;99.90;;;;;;4995561;28;20109;-75
2021/10/22 11:34:40;;;;;;;6.33;1.60;;;11.60;99.90;;;;;;5011725;28;20022;-76
2021/10/22 11:37:13;;;;;;;2.22;1.23;;;11.70;99.90;;;;;;4996027;28;20117;-76
2021/10/22 11:39:52;;;;;;;6.43;1.95;;;11.80;99.90;;;;;;4996265;28;20026;-77
2021/10/22 11:42:22;;;;;;;6.18;1.50;;;11.80;99.90;;;;;;5011781;28;20023;-77
2021/10/22 11:44:59;;;;;;;7.63;1.43;;;11.90;99.90;;;;;;4994265;28;20049;-76
2021/10/22 11:47:32;;;;;;;2.70;1.38;;;12.00;99.90;;;;;;5011644;28;20019;-76
2021/10/22 11:50:11;;;;;;;3.20;1.75;;;12.00;99.90;;;;;;4995759;28;20149;-76
2021/10/22 11:52:36;;;;;;;4.20;1.00;;;12.00;99.90;;;;;;4995328;28;20439;-76
2021/10/22 11:55:04;;;;;;;5.35;1.38;;;12.00;99.90;;;;;;4995801;28;20105;-78
2021/10/22 11:57:33;;;;;;;2.83;1.20;;;11.90;99.90;;;;;;5011152;28;20015;-77
2021/10/22 11:59:59;;;;;;;3.95;1.33;;;12.00;99.90;;;;;;4995494;28;20436;-77
2021/10/22 12:02:32;;;;;;;6.05;1.30;;;11.90;99.90;;;;;;4996152;28;20467;-77
2021/10/22 12:05:01;;;;;;;5.03;1.08;;;11.90;99.90;;;;;;4995444;28;20023;-77
2021/10/22 12:07:29;;;;;;;4.97;1.20;;;12.00;99.90;;;;;;5011148;28;20375;-77
2021/10/22 12:09:55;;;;;;;3.30;1.42;;;12.00;99.90;;;;;;4994034;28;20026;-77
2021/10/22 12:12:22;;;;;;;4.78;1.02;;;12.00;99.90;;;;;;5011062;28;20022;-77
2021/10/22 12:14:50;;;;;;;4.53;1.55;;;12.10;99.90;;;;;;5010390;28;20030;-76
2021/10/22 12:17:21;;;;;;;7.78;1.50;;;12.00;99.90;;;;;;4995842;28;20035;-77
2021/10/22 12:19:48;;;;;;;;;;;12.00;99.90;;;;;;4995404;28;20026;-75
2021/10/22 12:22:21;;;;;;;2.70;1.08;;;12.10;99.90;;;;;;4994396;28;19906;-77
2021/10/22 12:24:51;;;;;;;5.55;2.08;;;12.00;99.90;;;;;;4994950;28;20445;-77
2021/10/22 12:27:17;;;;;;;3.25;1.20;;;12.00;99.90;;;;;;4995615;28;20081;-77
2021/10/22 12:29:46;;;;;;;7.30;1.35;;;12.10;99.90;;;;;;4995130;28;20112;-76
2021/10/22 12:32:26;;;;;;;2.78;0.85;;;12.10;99.90;;;;;;4995577;28;20042;-77
2021/10/22 12:34:55;;;;;;;5.50;1.53;;;12.20;99.90;;;;;;4994777;28;20026;-76
2021/10/22 12:37:30;;;;;;;2.70;0.93;;;12.20;99.90;;;;;;4994965;28;20084;-77
2021/10/22 12:39:56;;;;;;;1.85;1.00;;;12.20;99.90;;;;;;5009792;28;20766;-76
2021/10/22 12:42:31;;;;;;;6.78;1.27;;;12.10;99.90;;;;;;4994736;28;20490;-76
2021/10/22 12:45:15;;;;;;;7.10;1.65;;;12.00;99.90;;;;;;5010361;28;20141;-76
2021/10/22 12:47:42;;;;;;;3.47;0.95;;;11.90;99.90;;;;;;5001061;28;20030;-77
2021/10/22 12:50:09;;;;;;;4.90;0.95;;;11.80;99.90;;;;;;5007590;28;20528;-77
2021/10/22 12:52:36;;;;;;;4.57;1.20;;;11.80;99.90;;;;;;5003579;28;20062;-76
2021/10/22 12:55:01;;;;;;;6.50;1.77;;;11.70;99.90;;;;;;5008714;28;20074;-76
2021/10/22 12:57:27;;;;;;;4.95;1.33;;;11.60;99.90;;;;;;5005488;28;20058;-76
2021/10/22 12:59:54;;;;;;;5.85;1.20;;;11.50;99.90;;;;;;5004609;28;20040;-76
2021/10/22 13:02:28;;;;;;;2.22;1.02;;;11.50;99.90;;;;;;5003123;28;20018;-76
2021/10/22 13:05:18;;;;;;;4.10;1.00;;;11.50;99.90;;;;;;5015433;28;20061;-77
2021/10/22 13:11:20;;;;;;;5.25;1.08;;;11.40;99.90;;;;;;5001946;28;20032;-77
2021/10/22 13:21:41;;;;;;;3.83;0.90;;;11.10;99.90;;;;;;4994884;28;20036;-77
2021/10/22 13:24:07;;;;;;;2.13;1.33;;;11.00;99.90;;;;;;4993855;28;20327;-76